サラエボ の空港の天気 - METARとTAF

サラエボ国際空港 ( LQSA / SJJ ) - ボスニア・ヘルツェゴビナ サラエボ
飛行場実況気象(Metar)
観測時間01/18 22:00 CET (01/18 21:00 UTC)
風向・風速不定 1m/s
視程5000m
天気現象もや
なし
気温-2℃
湿度93%
気圧1013hPa
METARLQSA 182100Z VRB02KT 5000 BR NSC M02/M03 Q1013 NOSIG
過去の天気等 Google飛行場航空写真 Wunderground天気予報

過去48時間のMETAR

飛行場予報(TAF)
発表時間: 1/18 18:01 CET (1/18 17:01 UTC)
予報対象時間: 18日19時 CET ~ 19日19時 CET
風向・風速南南西 3m/s
視程10km以上
なし
19日4時 CET から 確率 30% で
視程3,000m
天気現象もや
TAF LQSA 181701Z 1818/1918 21005KT CAVOK TX08/1912Z TNM04/1903Z
PROB30 1903/1907 3000 BR